This is the latest recevied weather packets stored in our database for station/object YN1ZSC-13. If no packets are shown the sender has not sent any weather packets the latest 10 day(s).
| Time | Temp. | Humidity | Pressure | Rain* | Wind** | Luminosity | Snow |
|---|---|---|---|---|---|---|---|
| 1778351519 | 32.22° C | 49% | 1008 hPa | 0 mm | - | - | - |
| 1778350919 | 32.78° C | 49% | 1009 hPa | 0 mm | - | - | - |
| 1778350318 | 32.22° C | 49% | 1009 hPa | 0 mm | - | - | - |
| 1778349718 | 32.22° C | 49% | 1009 hPa | 0 mm | - | - | - |
| 1778349117 | 32.78° C | 49% | 1009 hPa | 0 mm | - | - | - |
| 1778348517 | 33.33° C | 49% | 1009 hPa | 0 mm | - | - | - |
| 1778347916 | 30.56° C | 51% | 1009 hPa | 0 mm | - | - | - |
| 1778347315 | 31.67° C | 50% | 1010 hPa | 0 mm | - | - | - |
| 1778346714 | 31.67° C | 50% | 1010 hPa | 0 mm | - | - | - |
| 1778346114 | 32.22° C | 50% | 1010 hPa | 0 mm | - | - | - |
| 1778345513 | 32.78° C | 49% | 1010 hPa | 0 mm | - | - | - |
| 1778344913 | 33.33° C | 49% | 1010 hPa | 0 mm | - | - | - |
| 1778344312 | 29.44° C | 55% | 1010 hPa | 0 mm | - | - | - |
| 1778343712 | 30° C | 55% | 1011 hPa | 0 mm | - | - | - |
| 1778343111 | 30.56° C | 55% | 1011 hPa | 0 mm | - | - | - |
| 1778342510 | 31.11° C | 55% | 1011 hPa | 0 mm | - | - | - |
| 1778341910 | 31.67° C | 55% | 1011 hPa | 0 mm | - | - | - |
| 1778341309 | 28.33° C | 59% | 1011 hPa | 0 mm | - | - | - |
| 1778340709 | 27.78° C | 59% | 1011 hPa | 0 mm | - | - | - |
| 1778340108 | 28.33° C | 59% | 1011 hPa | 0 mm | - | - | - |
| 1778339507 | 28.89° C | 58% | 1011 hPa | 0 mm | - | - | - |
| 1778338907 | 29.44° C | 58% | 1011 hPa | 0 mm | - | - | - |
| 1778338306 | 30° C | 58% | 1011 hPa | 0 mm | - | - | - |
| 1778337706 | 30.56° C | 58% | 1011 hPa | 0 mm | - | - | - |
| 1778337105 | 26.11° C | 74% | 1011 hPa | 0 mm | - | - | - |
* Rain latest hour (hover to see other rain measurements)
** Current wind speed in m/s (hover to see current wind gust speed)